DAWOW SAZS-SAVC
Flight info
| Callsign | DAWOW |
|---|---|
| Flight time | 1h 7m |
| Altitude | 41000 |
| Route | ATAKO2G ATAKO UW39 EGEGU EGEGU2U |
| Aircraft | E190/M-SDE1E2E3FGHIJ3J4J7P2RWXY/LB1D1G1 |
Departure
| Time | 2026-05-08 21:41 |
|---|---|
| Airport | Teniente Luis Candelaria International Airport (SAZS) |
Arrival
| Time | 2026-05-08 22:48 |
|---|---|
| Airport | General Enrique Mosconi International Airport (SAVC) |
| Time | Latitude | Longitude | Altitude | Speed | Heading |
|---|---|---|---|---|---|
| 2026-05-08 21:02 | -41.14643 | -71.16228 | 2751 ft | 0 kts | 60° |
| 2026-05-08 21:29 | -41.14648 | -71.16236 | 2749 ft | 2 kts | 36° |
| 2026-05-08 21:29 | -41.14662 | -71.16243 | 2749 ft | 2 kts | 356° |
| 2026-05-08 21:30 | -41.14676 | -71.16238 | 2750 ft | 2 kts | 345° |
| 2026-05-08 21:30 | -41.14686 | -71.16235 | 2750 ft | 2 kts | 349° |
| 2026-05-08 21:30 | -41.14705 | -71.16229 | 2751 ft | 2 kts | 347° |
| 2026-05-08 21:30 | -41.14715 | -71.16226 | 2751 ft | 2 kts | 347° |
| 2026-05-08 21:31 | -41.14728 | -71.16223 | 2751 ft | 1 kts | 20° |
| 2026-05-08 21:31 | -41.14746 | -71.16235 | 2751 ft | 2 kts | 19° |
| 2026-05-08 21:31 | -41.14760 | -71.16241 | 2751 ft | 2 kts | 3° |
| 2026-05-08 21:31 | -41.14775 | -71.16238 | 2751 ft | 2 kts | 339° |
| 2026-05-08 21:32 | -41.14788 | -71.16228 | 2751 ft | 2 kts | 315° |
| 2026-05-08 21:32 | -41.14799 | -71.16215 | 2751 ft | 2 kts | 320° |
| 2026-05-08 21:32 | -41.14807 | -71.16198 | 2751 ft | 2 kts | 288° |
| 2026-05-08 21:32 | -41.14813 | -71.16180 | 2751 ft | 2 kts | 296° |
| 2026-05-08 21:33 | -41.14817 | -71.16167 | 2752 ft | 0 kts | 293° |
| 2026-05-08 21:35 | -41.14817 | -71.16169 | 2751 ft | 1 kts | 293° |
| 2026-05-08 21:35 | -41.14809 | -71.16194 | 2751 ft | 4 kts | 292° |
| 2026-05-08 21:36 | -41.14794 | -71.16243 | 2751 ft | 6 kts | 279° |
| 2026-05-08 21:36 | -41.14811 | -71.16283 | 2751 ft | 4 kts | 218° |
| 2026-05-08 21:36 | -41.14842 | -71.16306 | 2751 ft | 5 kts | 208° |
| 2026-05-08 21:36 | -41.14864 | -71.16322 | 2751 ft | 5 kts | 210° |
| 2026-05-08 21:37 | -41.14895 | -71.16367 | 2751 ft | 5 kts | 251° |
| 2026-05-08 21:37 | -41.14888 | -71.16423 | 2750 ft | 7 kts | 290° |
| 2026-05-08 21:37 | -41.14862 | -71.16497 | 2750 ft | 10 kts | 295° |
| 2026-05-08 21:37 | -41.14829 | -71.16593 | 2749 ft | 12 kts | 295° |
| 2026-05-08 21:38 | -41.14788 | -71.16711 | 2748 ft | 14 kts | 294° |
| 2026-05-08 21:38 | -41.14743 | -71.16843 | 2747 ft | 16 kts | 294° |
| 2026-05-08 21:38 | -41.14694 | -71.16956 | 2746 ft | 12 kts | 317° |
| 2026-05-08 21:38 | -41.14661 | -71.17033 | 2745 ft | 10 kts | 219° |
| 2026-05-08 21:39 | -41.14686 | -71.17005 | 2745 ft | 5 kts | 106° |
| 2026-05-08 21:39 | -41.14691 | -71.16989 | 2745 ft | 0 kts | 114° |
| 2026-05-08 21:39 | -41.14691 | -71.16988 | 2745 ft | 0 kts | 114° |
| 2026-05-08 21:39 | -41.14693 | -71.16985 | 2745 ft | 0 kts | 114° |
| 2026-05-08 21:40 | -41.14694 | -71.16980 | 2745 ft | 1 kts | 114° |
| 2026-05-08 21:41 | -41.14867 | -71.16479 | 2750 ft | 103 kts | 115° |
| 2026-05-08 21:41 | -41.15269 | -71.15294 | 2840 ft | 167 kts | 115° |
| 2026-05-08 21:41 | -41.15789 | -71.13824 | 3599 ft | 191 kts | 119° |
| 2026-05-08 21:41 | -41.16367 | -71.12209 | 4567 ft | 201 kts | 117° |
| 2026-05-08 21:42 | -41.16923 | -71.10599 | 5387 ft | 196 kts | 118° |
| 2026-05-08 21:42 | -41.17545 | -71.08885 | 6113 ft | 216 kts | 127° |
| 2026-05-08 21:42 | -41.18742 | -71.07687 | 6997 ft | 226 kts | 157° |
| 2026-05-08 21:42 | -41.20172 | -71.06918 | 8190 ft | 227 kts | 155° |
| 2026-05-08 21:43 | -41.21594 | -71.06152 | 9450 ft | 222 kts | 155° |
| 2026-05-08 21:43 | -41.22980 | -71.05402 | 10629 ft | 220 kts | 156° |
| 2026-05-08 21:43 | -41.24399 | -71.04635 | 11593 ft | 225 kts | 156° |
| 2026-05-08 21:43 | -41.25837 | -71.03856 | 12520 ft | 231 kts | 156° |
| 2026-05-08 21:44 | -41.27320 | -71.03051 | 13528 ft | 233 kts | 156° |
| 2026-05-08 21:44 | -41.28831 | -71.02232 | 14426 ft | 238 kts | 156° |
| 2026-05-08 21:44 | -41.30405 | -71.01317 | 14865 ft | 261 kts | 155° |
| 2026-05-08 21:44 | -41.32139 | -71.00261 | 15156 ft | 287 kts | 155° |
| 2026-05-08 21:45 | -41.34016 | -70.99120 | 15762 ft | 303 kts | 155° |
| 2026-05-08 21:45 | -41.35944 | -70.97946 | 16684 ft | 307 kts | 155° |
| 2026-05-08 21:45 | -41.37893 | -70.96761 | 17621 ft | 310 kts | 156° |
| 2026-05-08 21:45 | -41.39177 | -70.95978 | 18258 ft | 311 kts | 156° |
| 2026-05-08 21:46 | -41.41795 | -70.94382 | 19417 ft | 313 kts | 156° |
| 2026-05-08 21:46 | -41.43739 | -70.93195 | 20439 ft | 309 kts | 158° |
| 2026-05-08 21:46 | -41.45648 | -70.92030 | 21500 ft | 302 kts | 159° |
| 2026-05-08 21:46 | -41.47536 | -70.90878 | 22475 ft | 296 kts | 160° |
| 2026-05-08 21:47 | -41.49372 | -70.89755 | 23375 ft | 290 kts | 159° |
| 2026-05-08 21:47 | -41.51123 | -70.88686 | 23990 ft | 281 kts | 161° |
| 2026-05-08 21:47 | -41.52922 | -70.87587 | 24510 ft | 288 kts | 159° |
| 2026-05-08 21:47 | -41.54775 | -70.86452 | 25093 ft | 293 kts | 161° |
| 2026-05-08 21:48 | -41.56609 | -70.85329 | 25920 ft | 291 kts | 159° |
| 2026-05-08 21:48 | -41.58418 | -70.84219 | 26624 ft | 291 kts | 161° |
| 2026-05-08 21:48 | -41.60254 | -70.83094 | 27405 ft | 288 kts | 161° |
| 2026-05-08 21:48 | -41.62060 | -70.81986 | 28143 ft | 286 kts | 161° |
| 2026-05-08 21:49 | -41.63858 | -70.80881 | 28799 ft | 285 kts | 161° |
| 2026-05-08 21:49 | -41.65628 | -70.79664 | 29377 ft | 290 kts | 157° |
| 2026-05-08 21:49 | -41.67357 | -70.78329 | 30083 ft | 287 kts | 157° |
| 2026-05-08 21:49 | -41.69094 | -70.76990 | 30655 ft | 288 kts | 159° |
| 2026-05-08 21:50 | -41.70846 | -70.75642 | 30992 ft | 295 kts | 159° |
| 2026-05-08 21:50 | -41.72648 | -70.74255 | 31464 ft | 298 kts | 159° |
| 2026-05-08 21:50 | -41.74466 | -70.72856 | 31819 ft | 303 kts | 158° |
| 2026-05-08 21:50 | -41.76296 | -70.71443 | 32319 ft | 305 kts | 158° |
| 2026-05-08 21:51 | -41.78109 | -70.70046 | 32808 ft | 305 kts | 158° |
| 2026-05-08 21:51 | -41.79953 | -70.68623 | 33190 ft | 309 kts | 158° |
| 2026-05-08 21:51 | -41.81838 | -70.67168 | 33591 ft | 312 kts | 159° |
| 2026-05-08 21:51 | -41.83717 | -70.65715 | 33925 ft | 315 kts | 160° |
| 2026-05-08 21:52 | -41.85636 | -70.64230 | 34202 ft | 320 kts | 159° |
| 2026-05-08 21:52 | -41.87555 | -70.62746 | 34499 ft | 324 kts | 159° |
| 2026-05-08 21:52 | -41.89522 | -70.61224 | 34811 ft | 327 kts | 158° |
| 2026-05-08 21:52 | -41.91497 | -70.59692 | 35097 ft | 330 kts | 158° |
| 2026-05-08 21:53 | -41.93479 | -70.58153 | 35499 ft | 330 kts | 159° |
| 2026-05-08 21:53 | -41.95467 | -70.56611 | 35912 ft | 330 kts | 158° |
| 2026-05-08 21:53 | -41.97453 | -70.55067 | 36386 ft | 330 kts | 158° |
| 2026-05-08 21:53 | -41.99446 | -70.53518 | 36788 ft | 331 kts | 158° |
| 2026-05-08 21:54 | -42.01447 | -70.51961 | 37124 ft | 333 kts | 159° |
| 2026-05-08 21:54 | -42.03437 | -70.50412 | 37479 ft | 335 kts | 158° |
| 2026-05-08 21:54 | -42.05476 | -70.48824 | 37811 ft | 336 kts | 159° |
| 2026-05-08 21:54 | -42.07505 | -70.47243 | 38151 ft | 338 kts | 159° |
| 2026-05-08 21:55 | -42.09526 | -70.45667 | 38456 ft | 338 kts | 159° |
| 2026-05-08 21:55 | -42.11576 | -70.44066 | 38746 ft | 340 kts | 158° |
| 2026-05-08 21:55 | -42.13639 | -70.42456 | 39084 ft | 341 kts | 157° |
| 2026-05-08 21:56 | -42.17786 | -70.39210 | 39675 ft | 345 kts | 157° |
| 2026-05-08 21:56 | -42.19869 | -70.37579 | 39864 ft | 348 kts | 157° |
| 2026-05-08 21:56 | -42.21978 | -70.35927 | 40072 ft | 350 kts | 156° |
| 2026-05-08 21:56 | -42.24113 | -70.34250 | 40286 ft | 354 kts | 157° |
| 2026-05-08 21:57 | -42.26217 | -70.32600 | 40467 ft | 356 kts | 156° |
| 2026-05-08 21:57 | -42.28410 | -70.30878 | 40656 ft | 358 kts | 156° |
| 2026-05-08 21:57 | -42.30564 | -70.29183 | 40874 ft | 361 kts | 156° |
| 2026-05-08 21:57 | -42.32739 | -70.27473 | 41060 ft | 363 kts | 155° |
| 2026-05-08 21:58 | -42.34927 | -70.25748 | 41222 ft | 366 kts | 156° |
| 2026-05-08 21:58 | -42.39254 | -70.22337 | 41266 ft | 363 kts | 155° |
| 2026-05-08 21:59 | -42.43646 | -70.18870 | 41264 ft | 367 kts | 155° |
| 2026-05-08 21:59 | -42.47332 | -70.15953 | 41281 ft | 370 kts | 156° |
| 2026-05-08 22:00 | -42.52531 | -70.11833 | 41256 ft | 371 kts | 156° |
| 2026-05-08 22:00 | -42.56230 | -70.08897 | 41272 ft | 369 kts | 155° |
| 2026-05-08 22:01 | -42.60666 | -70.05373 | 41273 ft | 371 kts | 156° |
| 2026-05-08 22:01 | -42.65856 | -70.01241 | 41268 ft | 375 kts | 155° |
| 2026-05-08 22:02 | -42.70329 | -69.97673 | 41267 ft | 371 kts | 155° |
| 2026-05-08 22:02 | -42.74030 | -69.94715 | 41265 ft | 373 kts | 155° |
| 2026-05-08 22:03 | -42.78442 | -69.91185 | 41267 ft | 372 kts | 155° |
| 2026-05-08 22:03 | -42.82901 | -69.87611 | 41265 ft | 371 kts | 156° |
| 2026-05-08 22:04 | -42.87360 | -69.84032 | 41257 ft | 372 kts | 155° |
| 2026-05-08 22:04 | -42.91783 | -69.80475 | 41248 ft | 372 kts | 155° |
| 2026-05-08 22:05 | -42.96265 | -69.76863 | 41247 ft | 374 kts | 155° |
| 2026-05-08 22:05 | -43.00714 | -69.73275 | 41235 ft | 371 kts | 155° |
| 2026-05-08 22:06 | -43.05165 | -69.69679 | 41248 ft | 374 kts | 155° |
| 2026-05-08 22:06 | -43.09642 | -69.66054 | 41262 ft | 373 kts | 155° |
| 2026-05-08 22:07 | -43.14113 | -69.62430 | 41279 ft | 373 kts | 155° |
| 2026-05-08 22:07 | -43.18642 | -69.58749 | 41266 ft | 375 kts | 155° |
| 2026-05-08 22:08 | -43.23039 | -69.55172 | 41251 ft | 371 kts | 155° |
| 2026-05-08 22:08 | -43.28243 | -69.50929 | 41247 ft | 374 kts | 155° |
| 2026-05-08 22:09 | -43.31969 | -69.47887 | 41246 ft | 372 kts | 155° |
| 2026-05-08 22:09 | -43.36402 | -69.44260 | 41273 ft | 371 kts | 156° |
| 2026-05-08 22:10 | -43.40854 | -69.40615 | 41278 ft | 371 kts | 154° |
| 2026-05-08 22:10 | -43.45291 | -69.36971 | 41276 ft | 374 kts | 155° |
| 2026-05-08 22:11 | -43.49799 | -69.33267 | 41298 ft | 373 kts | 154° |
| 2026-05-08 22:11 | -43.54241 | -69.29607 | 41302 ft | 376 kts | 154° |
| 2026-05-08 22:12 | -43.58689 | -69.25937 | 41323 ft | 375 kts | 155° |
| 2026-05-08 22:12 | -43.63174 | -69.22233 | 41329 ft | 373 kts | 154° |
| 2026-05-08 22:13 | -43.67660 | -69.18517 | 41323 ft | 374 kts | 154° |
| 2026-05-08 22:13 | -43.72100 | -69.14835 | 41332 ft | 372 kts | 154° |
| 2026-05-08 22:14 | -43.77300 | -69.10514 | 41351 ft | 371 kts | 155° |
| 2026-05-08 22:14 | -43.80962 | -69.07465 | 41355 ft | 358 kts | 154° |
| 2026-05-08 22:15 | -43.85871 | -69.03373 | 41365 ft | 356 kts | 154° |
| 2026-05-08 22:15 | -43.87989 | -69.01604 | 41074 ft | 360 kts | 155° |
| 2026-05-08 22:15 | -43.89423 | -69.00405 | 40824 ft | 358 kts | 154° |
| 2026-05-08 22:15 | -43.92215 | -68.98069 | 40303 ft | 346 kts | 155° |
| 2026-05-08 22:16 | -43.93583 | -68.96924 | 40039 ft | 342 kts | 155° |
| 2026-05-08 22:16 | -43.95586 | -68.95247 | 39659 ft | 336 kts | 155° |
| 2026-05-08 22:16 | -43.97574 | -68.93579 | 39308 ft | 330 kts | 156° |
| 2026-05-08 22:16 | -43.99521 | -68.91946 | 38920 ft | 328 kts | 157° |
| 2026-05-08 22:17 | -44.01500 | -68.90290 | 38540 ft | 328 kts | 155° |
| 2026-05-08 22:17 | -44.03446 | -68.88654 | 38157 ft | 333 kts | 156° |
| 2026-05-08 22:17 | -44.05427 | -68.86990 | 37779 ft | 332 kts | 156° |
| 2026-05-08 22:17 | -44.08067 | -68.84766 | 37287 ft | 332 kts | 155° |
| 2026-05-08 22:18 | -44.09381 | -68.83660 | 37044 ft | 331 kts | 155° |
| 2026-05-08 22:18 | -44.11343 | -68.82004 | 36711 ft | 328 kts | 156° |
| 2026-05-08 22:18 | -44.14021 | -68.79748 | 36214 ft | 335 kts | 155° |
| 2026-05-08 22:18 | -44.16004 | -68.78072 | 35854 ft | 331 kts | 155° |
| 2026-05-08 22:19 | -44.17320 | -68.76959 | 35604 ft | 332 kts | 155° |
| 2026-05-08 22:19 | -44.19292 | -68.75293 | 35286 ft | 335 kts | 156° |
| 2026-05-08 22:19 | -44.21284 | -68.73607 | 34920 ft | 334 kts | 157° |
| 2026-05-08 22:19 | -44.23925 | -68.71369 | 34429 ft | 333 kts | 156° |
| 2026-05-08 22:20 | -44.25246 | -68.70252 | 34176 ft | 334 kts | 156° |
| 2026-05-08 22:20 | -44.27212 | -68.68582 | 33807 ft | 332 kts | 156° |
| 2026-05-08 22:20 | -44.29178 | -68.66914 | 33429 ft | 332 kts | 156° |
| 2026-05-08 22:20 | -44.31157 | -68.65234 | 33068 ft | 337 kts | 155° |
| 2026-05-08 22:21 | -44.33822 | -68.62969 | 32555 ft | 336 kts | 156° |
| 2026-05-08 22:21 | -44.35167 | -68.61824 | 32291 ft | 339 kts | 155° |
| 2026-05-08 22:21 | -44.37841 | -68.59547 | 31779 ft | 341 kts | 154° |
| 2026-05-08 22:21 | -44.39197 | -68.58390 | 31514 ft | 342 kts | 155° |
| 2026-05-08 22:22 | -44.41888 | -68.56094 | 31008 ft | 338 kts | 154° |
| 2026-05-08 22:22 | -44.43221 | -68.54954 | 30753 ft | 335 kts | 153° |
| 2026-05-08 22:22 | -44.45830 | -68.52724 | 30261 ft | 332 kts | 153° |
| 2026-05-08 22:22 | -44.47794 | -68.51045 | 29893 ft | 333 kts | 154° |
| 2026-05-08 22:23 | -44.49120 | -68.49913 | 29644 ft | 332 kts | 153° |
| 2026-05-08 22:23 | -44.51748 | -68.47662 | 29154 ft | 334 kts | 152° |
| 2026-05-08 22:23 | -44.53070 | -68.46529 | 28907 ft | 336 kts | 152° |
| 2026-05-08 22:23 | -44.55716 | -68.44259 | 28425 ft | 335 kts | 152° |
| 2026-05-08 22:24 | -44.57062 | -68.43101 | 28179 ft | 339 kts | 153° |
| 2026-05-08 22:24 | -44.59054 | -68.41391 | 27798 ft | 339 kts | 152° |
| 2026-05-08 22:24 | -44.61725 | -68.39094 | 27319 ft | 341 kts | 152° |
| 2026-05-08 22:24 | -44.63079 | -68.37929 | 27072 ft | 341 kts | 152° |
| 2026-05-08 22:25 | -44.65762 | -68.35616 | 26582 ft | 341 kts | 152° |
| 2026-05-08 22:25 | -44.67121 | -68.34445 | 26331 ft | 342 kts | 150° |
| 2026-05-08 22:25 | -44.69847 | -68.32091 | 25828 ft | 345 kts | 151° |
| 2026-05-08 22:25 | -44.71919 | -68.30304 | 25449 ft | 344 kts | 150° |
| 2026-05-08 22:26 | -44.73262 | -68.29142 | 25210 ft | 345 kts | 150° |
| 2026-05-08 22:26 | -44.75306 | -68.27374 | 24829 ft | 347 kts | 150° |
| 2026-05-08 22:26 | -44.77358 | -68.25599 | 24462 ft | 350 kts | 150° |
| 2026-05-08 22:26 | -44.79433 | -68.23800 | 24054 ft | 349 kts | 149° |
| 2026-05-08 22:27 | -44.81508 | -68.22001 | 23672 ft | 352 kts | 150° |
| 2026-05-08 22:27 | -44.84290 | -68.19585 | 23126 ft | 349 kts | 150° |
| 2026-05-08 22:27 | -44.86326 | -68.17816 | 22761 ft | 348 kts | 149° |
| 2026-05-08 22:27 | -44.88388 | -68.16023 | 22358 ft | 346 kts | 149° |
| 2026-05-08 22:28 | -44.89751 | -68.14837 | 22088 ft | 346 kts | 150° |
| 2026-05-08 22:28 | -44.91798 | -68.13055 | 21713 ft | 345 kts | 149° |
| 2026-05-08 22:28 | -44.94490 | -68.10708 | 21205 ft | 342 kts | 149° |
| 2026-05-08 22:28 | -44.95846 | -68.09525 | 20948 ft | 345 kts | 149° |
| 2026-05-08 22:29 | -44.97882 | -68.07747 | 20565 ft | 340 kts | 149° |
| 2026-05-08 22:29 | -44.99814 | -68.05880 | 20176 ft | 339 kts | 140° |
| 2026-05-08 22:29 | -45.01507 | -68.03589 | 19816 ft | 339 kts | 138° |
| 2026-05-08 22:29 | -45.03762 | -68.00477 | 19304 ft | 341 kts | 137° |
| 2026-05-08 22:30 | -45.04897 | -67.98908 | 19056 ft | 339 kts | 138° |
| 2026-05-08 22:30 | -45.07133 | -67.95813 | 18555 ft | 338 kts | 137° |
| 2026-05-08 22:30 | -45.08797 | -67.93509 | 18176 ft | 336 kts | 137° |
| 2026-05-08 22:30 | -45.09917 | -67.91954 | 17925 ft | 334 kts | 137° |
| 2026-05-08 22:31 | -45.11565 | -67.89668 | 17559 ft | 331 kts | 137° |
| 2026-05-08 22:31 | -45.13199 | -67.87399 | 17196 ft | 329 kts | 137° |
| 2026-05-08 22:31 | -45.15362 | -67.84369 | 16727 ft | 325 kts | 137° |
| 2026-05-08 22:31 | -45.16956 | -67.82127 | 16374 ft | 323 kts | 137° |
| 2026-05-08 22:32 | -45.18011 | -67.80642 | 16136 ft | 317 kts | 137° |
| 2026-05-08 22:32 | -45.19579 | -67.78432 | 15793 ft | 315 kts | 138° |
| 2026-05-08 22:32 | -45.21652 | -67.75509 | 15331 ft | 315 kts | 137° |
| 2026-05-08 22:32 | -45.22683 | -67.74055 | 15097 ft | 313 kts | 137° |
| 2026-05-08 22:33 | -45.24722 | -67.71174 | 14637 ft | 309 kts | 137° |
| 2026-05-08 22:33 | -45.26242 | -67.69025 | 14301 ft | 306 kts | 138° |
| 2026-05-08 22:33 | -45.27747 | -67.66895 | 13956 ft | 306 kts | 137° |
| 2026-05-08 22:33 | -45.29245 | -67.64773 | 13622 ft | 300 kts | 137° |
| 2026-05-08 22:34 | -45.30718 | -67.62687 | 13292 ft | 298 kts | 137° |
| 2026-05-08 22:34 | -45.32185 | -67.60606 | 12957 ft | 299 kts | 137° |
| 2026-05-08 22:34 | -45.33167 | -67.59212 | 12728 ft | 299 kts | 137° |
| 2026-05-08 22:34 | -45.34617 | -67.57153 | 12403 ft | 295 kts | 137° |
| 2026-05-08 22:35 | -45.36543 | -67.54415 | 11964 ft | 291 kts | 137° |
| 2026-05-08 22:35 | -45.37482 | -67.53085 | 11760 ft | 286 kts | 137° |
| 2026-05-08 22:35 | -45.38857 | -67.51133 | 11442 ft | 279 kts | 137° |
| 2026-05-08 22:35 | -45.40660 | -67.48576 | 11041 ft | 268 kts | 137° |
| 2026-05-08 22:36 | -45.41961 | -67.46729 | 10741 ft | 261 kts | 137° |
| 2026-05-08 22:36 | -45.42810 | -67.45522 | 10556 ft | 256 kts | 137° |
| 2026-05-08 22:36 | -45.44051 | -67.43757 | 10270 ft | 249 kts | 138° |
| 2026-05-08 22:36 | -45.45264 | -67.42033 | 10008 ft | 245 kts | 137° |
| 2026-05-08 22:37 | -45.46469 | -67.40318 | 9695 ft | 246 kts | 137° |
| 2026-05-08 22:37 | -45.47696 | -67.38570 | 9147 ft | 247 kts | 137° |
| 2026-05-08 22:37 | -45.49282 | -67.36302 | 8756 ft | 241 kts | 138° |
| 2026-05-08 22:37 | -45.50464 | -67.34611 | 8491 ft | 239 kts | 137° |
| 2026-05-08 22:38 | -45.51638 | -67.32931 | 8233 ft | 241 kts | 137° |
| 2026-05-08 22:38 | -45.52819 | -67.31241 | 7969 ft | 239 kts | 137° |
| 2026-05-08 22:38 | -45.53595 | -67.30128 | 7798 ft | 239 kts | 137° |
| 2026-05-08 22:38 | -45.55158 | -67.27888 | 7445 ft | 240 kts | 137° |
| 2026-05-08 22:39 | -45.55937 | -67.26769 | 7264 ft | 237 kts | 138° |
| 2026-05-08 22:39 | -45.57098 | -67.25104 | 7001 ft | 236 kts | 137° |
| 2026-05-08 22:39 | -45.58235 | -67.23469 | 6743 ft | 226 kts | 137° |
| 2026-05-08 22:39 | -45.59671 | -67.21403 | 6420 ft | 213 kts | 138° |
| 2026-05-08 22:40 | -45.60687 | -67.19943 | 6188 ft | 205 kts | 138° |
| 2026-05-08 22:40 | -45.61360 | -67.18974 | 6038 ft | 202 kts | 138° |
| 2026-05-08 22:40 | -45.62666 | -67.17094 | 5752 ft | 202 kts | 139° |
| 2026-05-08 22:40 | -45.63329 | -67.16139 | 5605 ft | 200 kts | 139° |
| 2026-05-08 22:41 | -45.64630 | -67.14265 | 5307 ft | 201 kts | 138° |
| 2026-05-08 22:41 | -45.65312 | -67.13342 | 5154 ft | 198 kts | 148° |
| 2026-05-08 22:41 | -45.66614 | -67.12946 | 4974 ft | 198 kts | 188° |
| 2026-05-08 22:41 | -45.68273 | -67.13991 | 4687 ft | 193 kts | 200° |
| 2026-05-08 22:42 | -45.69463 | -67.14864 | 4457 ft | 187 kts | 201° |
| 2026-05-08 22:42 | -45.70584 | -67.15704 | 4250 ft | 181 kts | 201° |
| 2026-05-08 22:42 | -45.71319 | -67.16260 | 4121 ft | 177 kts | 201° |
| 2026-05-08 22:42 | -45.72393 | -67.17081 | 3923 ft | 171 kts | 201° |
| 2026-05-08 22:43 | -45.73410 | -67.17861 | 3805 ft | 160 kts | 201° |
| 2026-05-08 22:43 | -45.74373 | -67.18637 | 3599 ft | 160 kts | 211° |
| 2026-05-08 22:43 | -45.74936 | -67.20077 | 3412 ft | 180 kts | 245° |
| 2026-05-08 22:43 | -45.75292 | -67.22444 | 3102 ft | 183 kts | 248° |
| 2026-05-08 22:44 | -45.75456 | -67.23611 | 2964 ft | 174 kts | 248° |
| 2026-05-08 22:44 | -45.75680 | -67.25246 | 2698 ft | 160 kts | 248° |
| 2026-05-08 22:44 | -45.75960 | -67.27293 | 2431 ft | 158 kts | 247° |
| 2026-05-08 22:44 | -45.76100 | -67.28323 | 2306 ft | 158 kts | 247° |
| 2026-05-08 22:45 | -45.76375 | -67.30353 | 2041 ft | 159 kts | 248° |
| 2026-05-08 22:45 | -45.76516 | -67.31410 | 1938 ft | 156 kts | 248° |
| 2026-05-08 22:45 | -45.76702 | -67.32852 | 1955 ft | 134 kts | 247° |
| 2026-05-08 22:45 | -45.76890 | -67.34498 | 1672 ft | 122 kts | 247° |
| 2026-05-08 22:46 | -45.77053 | -67.35671 | 1394 ft | 118 kts | 244° |
| 2026-05-08 22:46 | -45.77238 | -67.36802 | 1117 ft | 117 kts | 244° |
| 2026-05-08 22:46 | -45.77438 | -67.37949 | 864 ft | 118 kts | 245° |
| 2026-05-08 22:46 | -45.77562 | -67.39198 | 817 ft | 129 kts | 253° |
| 2026-05-08 22:47 | -45.77692 | -67.40421 | 659 ft | 119 kts | 247° |
| 2026-05-08 22:47 | -45.77855 | -67.41570 | 544 ft | 119 kts | 248° |
| 2026-05-08 22:47 | -45.78012 | -67.42744 | 420 ft | 121 kts | 249° |
| 2026-05-08 22:47 | -45.78114 | -67.43523 | 329 ft | 119 kts | 249° |
| 2026-05-08 22:48 | -45.78328 | -67.45049 | 124 ft | 116 kts | 248° |
| 2026-05-08 22:48 | -45.78439 | -67.45734 | 135 ft | 88 kts | 258° |
| 2026-05-08 22:48 | -45.78500 | -67.46298 | 152 ft | 27 kts | 265° |
| 2026-05-08 22:48 | -45.78512 | -67.46381 | 154 ft | 7 kts | 257° |
| 2026-05-08 22:49 | -45.78524 | -67.46470 | 157 ft | 8 kts | 256° |
| 2026-05-08 22:49 | -45.78543 | -67.46581 | 160 ft | 6 kts | 261° |
| 2026-05-08 22:49 | -45.78551 | -67.46677 | 164 ft | 8 kts | 260° |
| 2026-05-08 22:50 | -45.78564 | -67.46756 | 166 ft | 7 kts | 251° |
| 2026-05-08 22:50 | -45.78582 | -67.46811 | 167 ft | 4 kts | 235° |
| 2026-05-08 22:50 | -45.78609 | -67.46821 | 167 ft | 4 kts | 181° |
| 2026-05-08 22:50 | -45.78643 | -67.46815 | 168 ft | 5 kts | 180° |
| 2026-05-08 22:51 | -45.78685 | -67.46815 | 168 ft | 7 kts | 179° |
| 2026-05-08 22:51 | -45.78742 | -67.46811 | 168 ft | 8 kts | 174° |
| 2026-05-08 22:51 | -45.78803 | -67.46805 | 168 ft | 8 kts | 178° |
| 2026-05-08 22:51 | -45.78852 | -67.46803 | 169 ft | 4 kts | 179° |
| 2026-05-08 22:52 | -45.78871 | -67.46803 | 169 ft | 3 kts | 178° |
| 2026-05-08 22:52 | -45.78903 | -67.46804 | 169 ft | 4 kts | 179° |
| 2026-05-08 22:52 | -45.78959 | -67.46785 | 168 ft | 7 kts | 138° |
| 2026-05-08 22:52 | -45.78972 | -67.46716 | 167 ft | 7 kts | 91° |
| 2026-05-08 22:53 | -45.78971 | -67.46664 | 166 ft | 8 kts | 88° |
| 2026-05-08 22:53 | -45.78970 | -67.46521 | 161 ft | 10 kts | 103° |
| 2026-05-08 22:53 | -45.78997 | -67.46463 | 160 ft | 11 kts | 146° |
| 2026-05-08 22:53 | -45.79047 | -67.46441 | 160 ft | 3 kts | 171° |
| 2026-05-08 22:54 | -45.79057 | -67.46452 | 160 ft | 0 kts | 284° |
| 2026-05-08 22:54 | -45.79055 | -67.46455 | 160 ft | 0 kts | 298° |